Time;durP1;ratioP1;P1;durP2;ratioP2;P2;SDS_P1;SDS_P2;PMS_P1;PMS_P2;Temp;Humidity;BMP_temperature;BMP_pressure;BME280_temperature;BME280_humidity;BME280_pressure;Samples;Min_cycle;Max_cycle;Signal;HPM_P1;HPM_P2
2023/12/29 00:00:27;;;;;;;3.40;1.60;;;;;;;9.39;100.00;97406.72;5061616;28;20045;-78
2023/12/29 00:02:54;;;;;;;3.63;0.95;;;;;;;9.45;100.00;97415.44;5042169;28;20051;-78
2023/12/29 00:05:21;;;;;;;3.20;1.33;;;;;;;9.54;100.00;97417.09;5026676;28;20052;-78
2023/12/29 00:07:48;;;;;;;3.97;1.35;;;;;;;9.63;100.00;97398.19;5052629;28;20056;-77
2023/12/29 00:10:15;;;;;;;2.97;1.10;;;;;;;9.57;100.00;97408.38;5055208;28;20053;-78
2023/12/29 00:12:42;;;;;;;1.60;0.90;;;;;;;9.57;100.00;97384.06;5057769;28;20072;-77
2023/12/29 00:15:09;;;;;;;1.67;0.90;;;;;;;9.70;100.00;97385.03;5063213;28;20041;-78
2023/12/29 00:17:40;;;;;;;2.22;0.85;;;;;;;9.66;100.00;97387.56;5063938;28;20056;-77
2023/12/29 00:20:08;;;;;;;2.95;1.02;;;;;;;9.69;100.00;97391.53;5060105;28;20047;-78
2023/12/29 00:22:34;;;;;;;2.95;0.88;;;;;;;9.68;100.00;97393.44;5060695;28;20045;-78
2023/12/29 00:25:02;;;;;;;1.83;0.82;;;;;;;9.65;100.00;97388.66;5060279;28;20052;-80
2023/12/29 00:27:29;;;;;;;2.00;0.90;;;;;;;9.81;100.00;97381.69;5060988;28;20054;-77
2023/12/29 00:29:56;;;;;;;1.80;0.90;;;;;;;9.72;100.00;97377.41;5053318;28;20052;-77
2023/12/29 00:32:23;;;;;;;5.07;0.77;;;;;;;9.86;100.00;97383.44;5034163;28;20071;-77
2023/12/29 00:34:50;;;;;;;1.52;0.70;;;;;;;9.80;100.00;97372.00;5043361;28;20616;-76
2023/12/29 00:37:17;;;;;;;1.73;1.00;;;;;;;9.86;100.00;97369.94;5046929;28;21118;-77
2023/12/29 00:39:44;;;;;;;0.88;0.70;;;;;;;9.87;100.00;97369.63;5043137;28;20041;-77
2023/12/29 00:42:11;;;;;;;2.00;0.60;;;;;;;9.89;100.00;97366.59;5042037;28;20131;-76
2023/12/29 00:44:39;;;;;;;2.33;0.80;;;;;;;9.92;100.00;97364.06;5058685;28;20112;-77
2023/12/29 00:47:05;;;;;;;2.13;0.70;;;;;;;9.87;100.00;97352.59;5052986;28;20095;-77
2023/12/29 00:49:32;;;;;;;3.22;0.82;;;;;;;9.91;100.00;97367.88;5061099;28;20515;-77
2023/12/29 00:52:00;;;;;;;1.45;0.70;;;;;;;9.89;100.00;97345.75;5037836;28;20054;-77
2023/12/29 00:54:27;;;;;;;1.58;0.60;;;;;;;9.82;100.00;97363.56;5053131;28;20051;-77
2023/12/29 00:56:56;;;;;;;1.58;0.88;;;;;;;9.89;100.00;97363.88;5060682;28;20045;-76
2023/12/29 00:59:22;;;;;;;0.60;0.50;;;;;;;9.98;100.00;97354.69;5054251;28;20102;-76
2023/12/29 01:01:49;;;;;;;1.67;0.70;;;;;;;9.82;100.00;97350.84;5039686;28;20057;-77
2023/12/29 01:04:17;;;;;;;0.93;0.60;;;;;;;9.88;100.00;97360.38;5035747;28;20526;-77
2023/12/29 01:06:44;;;;;;;0.73;0.52;;;;;;;9.84;100.00;97351.31;5052463;28;20072;-77
2023/12/29 01:09:11;;;;;;;1.48;0.40;;;;;;;9.93;100.00;97364.88;5052195;28;20523;-77
2023/12/29 01:11:39;;;;;;;1.50;0.70;;;;;;;9.85;100.00;97352.13;5048898;28;20045;-76
2023/12/29 01:14:06;;;;;;;0.52;0.38;;;;;;;9.81;100.00;97348.44;5053273;28;20041;-76
2023/12/29 01:16:33;;;;;;;0.98;0.47;;;;;;;9.86;100.00;97342.88;5037089;28;20503;-75
2023/12/29 01:19:00;;;;;;;0.52;0.50;;;;;;;9.92;100.00;97349.75;5043508;28;20652;-75
2023/12/29 01:21:27;;;;;;;0.65;0.40;;;;;;;9.88;100.00;97357.69;5024121;28;20041;-76
2023/12/29 01:23:54;;;;;;;1.23;0.60;;;;;;;9.91;100.00;97357.06;5037496;28;20419;-75
2023/12/29 01:26:21;;;;;;;0.85;0.40;;;;;;;9.86;100.00;97359.91;5058430;28;20065;-76
2023/12/29 01:28:49;;;;;;;0.60;0.40;;;;;;;9.77;100.00;97358.31;5042880;28;20086;-76
2023/12/29 01:31:16;;;;;;;0.60;0.40;;;;;;;9.76;100.00;97352.13;5038614;28;20045;-77
2023/12/29 01:33:43;;;;;;;1.08;0.50;;;;;;;9.79;100.00;97346.06;5038915;28;20467;-77
2023/12/29 01:36:17;;;;;;;4.68;0.52;;;;;;;9.76;100.00;97357.53;5028346;28;20059;-77
2023/12/29 01:38:51;;;;;;;1.05;0.60;;;;;;;9.93;100.00;97354.84;5035917;28;20069;-75
2023/12/29 01:41:21;;;;;;;0.85;0.40;;;;;;;9.77;100.00;97342.91;5059341;28;20037;-77
2023/12/29 01:44:00;;;;;;;0.80;0.45;;;;;;;9.76;100.00;97349.41;5030287;28;20083;-77
2023/12/29 01:46:34;;;;;;;1.08;0.60;;;;;;;9.89;100.00;97342.25;5025917;28;20133;-77
2023/12/29 01:49:01;;;;;;;1.05;0.50;;;;;;;9.73;100.00;97343.84;5027658;28;20402;-76
2023/12/29 01:51:29;;;;;;;0.45;0.40;;;;;;;9.67;100.00;97345.91;5045629;28;20064;-77
2023/12/29 01:53:58;;;;;;;1.30;0.60;;;;;;;9.72;100.00;97340.34;5038078;28;20408;-76
2023/12/29 01:56:25;;;;;;;1.05;0.63;;;;;;;9.62;100.00;97343.38;5044353;28;20040;-77
2023/12/29 01:58:55;;;;;;;1.02;0.57;;;;;;;9.62;100.00;97353.38;5044122;28;20048;-77
2023/12/29 02:01:31;;;;;;;0.93;0.50;;;;;;;9.74;100.00;97332.72;5006034;28;20092;-76
2023/12/29 02:04:02;;;;;;;0.60;0.50;;;;;;;9.75;100.00;97320.00;5039358;28;20041;-76
2023/12/29 02:06:29;;;;;;;0.88;0.40;;;;;;;9.66;100.00;97319.97;5018647;28;20049;-75
2023/12/29 02:08:58;;;;;;;0.63;0.30;;;;;;;9.79;100.00;97316.34;5027347;28;20515;-76
2023/12/29 02:11:26;;;;;;;1.10;0.43;;;;;;;9.82;100.00;97312.22;5011017;28;20057;-77
2023/12/29 02:13:52;;;;;;;1.17;0.38;;;;;;;9.72;100.00;97301.72;5023205;28;20128;-76
2023/12/29 02:16:32;;;;;;;0.85;0.50;;;;;;;9.68;100.00;97290.72;5026317;28;20072;-76
2023/12/29 02:19:04;;;;;;;0.75;0.45;;;;;;;9.83;100.00;97290.25;5018618;28;20120;-77
2023/12/29 02:21:30;;;;;;;0.80;0.40;;;;;;;9.71;100.00;97297.41;5028682;28;20045;-77
2023/12/29 02:23:57;;;;;;;0.50;0.30;;;;;;;9.81;100.00;97281.66;5036605;28;20045;-77
2023/12/29 02:26:29;;;;;;;0.57;0.40;;;;;;;9.84;100.00;97285.66;5035500;28;20471;-76
2023/12/29 02:29:02;;;;;;;0.98;0.32;;;;;;;9.75;100.00;97271.34;5036109;28;20451;-76
2023/12/29 02:31:32;;;;;;;0.43;0.38;;;;;;;9.77;100.00;97271.81;5018342;28;20539;-77
2023/12/29 02:34:03;;;;;;;0.60;0.40;;;;;;;9.70;100.00;97283.13;5030410;28;20049;-77
2023/12/29 02:36:30;;;;;;;0.90;0.57;;;;;;;9.76;100.00;97271.03;4996783;28;20663;-76
2023/12/29 02:38:57;;;;;;;0.57;0.43;;;;;;;9.63;100.00;97268.47;5032238;28;20138;-77
2023/12/29 02:41:26;;;;;;;0.60;0.40;;;;;;;9.64;100.00;97278.97;5024370;28;20169;-76
2023/12/29 02:43:53;;;;;;;0.75;0.32;;;;;;;9.66;100.00;97281.34;5041776;28;20534;-76
2023/12/29 02:46:20;;;;;;;0.52;0.40;;;;;;;9.69;100.00;97276.13;5044235;28;20045;-76
2023/12/29 02:48:47;;;;;;;0.60;0.40;;;;;;;9.77;100.00;97263.72;5041960;28;20048;-76
2023/12/29 02:51:14;;;;;;;0.30;0.30;;;;;;;9.71;100.00;97267.69;5044719;28;20297;-75
2023/12/29 02:53:40;;;;;;;0.60;0.40;;;;;;;9.86;100.00;97250.97;5029097;28;20523;-75
2023/12/29 02:56:08;;;;;;;1.48;0.40;;;;;;;9.70;100.00;97258.78;5024179;28;20053;-75
2023/12/29 02:58:34;;;;;;;0.70;0.50;;;;;;;9.70;100.00;97261.50;5039175;28;20124;-76
2023/12/29 03:01:01;;;;;;;0.77;0.40;;;;;;;9.60;100.00;97264.50;5040384;28;20044;-75
2023/12/29 03:03:28;;;;;;;0.65;0.43;;;;;;;9.69;100.00;97261.78;5042077;28;20041;-76
2023/12/29 03:05:55;;;;;;;2.97;0.40;;;;;;;9.77;100.00;97256.41;5029183;28;20045;-76
2023/12/29 03:08:22;;;;;;;0.82;0.40;;;;;;;9.66;100.00;97252.41;5011373;28;20042;-76
2023/12/29 03:10:48;;;;;;;2.83;0.47;;;;;;;9.61;100.00;97249.06;5032105;28;20061;-76
2023/12/29 03:13:15;;;;;;;0.30;0.30;;;;;;;9.61;100.00;97252.56;5014152;28;20060;-76
2023/12/29 03:15:42;;;;;;;3.00;0.60;;;;;;;9.72;100.00;97253.84;5037458;28;20503;-76
2023/12/29 03:18:09;;;;;;;1.05;0.70;;;;;;;9.71;100.00;97251.47;5043297;28;21570;-76
2023/12/29 03:20:36;;;;;;;0.93;0.50;;;;;;;9.76;100.00;97259.41;5042067;28;20053;-75
2023/12/29 03:23:03;;;;;;;3.45;0.70;;;;;;;9.75;100.00;97249.72;5034602;28;20049;-75
2023/12/29 03:25:30;;;;;;;0.93;0.40;;;;;;;9.81;100.00;97249.22;5038038;28;20047;-75
2023/12/29 03:27:57;;;;;;;1.58;0.50;;;;;;;9.88;100.00;97246.06;5040737;28;20061;-76
2023/12/29 03:30:24;;;;;;;0.90;0.60;;;;;;;9.91;100.00;97227.28;5031638;28;20068;-75
2023/12/29 03:32:51;;;;;;;1.23;0.70;;;;;;;9.88;100.00;97243.34;5030254;28;20053;-75
2023/12/29 03:35:18;;;;;;;1.02;0.57;;;;;;;9.94;100.00;97236.66;5064234;28;20151;-74
2023/12/29 03:37:45;;;;;;;0.90;0.70;;;;;;;9.85;100.00;97236.69;5038740;28;20621;-75
2023/12/29 03:40:12;;;;;;;1.08;0.63;;;;;;;9.94;100.00;97236.66;5031235;28;20649;-77
2023/12/29 03:42:40;;;;;;;1.38;0.75;;;;;;;9.94;100.00;97242.84;5017077;28;20045;-76
2023/12/29 03:45:07;;;;;;;4.53;0.80;;;;;;;9.90;100.00;97230.31;5027774;28;20046;-76
2023/12/29 03:47:35;;;;;;;1.25;0.68;;;;;;;9.87;100.00;97241.75;5036846;28;20061;-76
2023/12/29 03:50:04;;;;;;;1.80;0.75;;;;;;;9.91;100.00;97238.09;5032696;28;20049;-75
2023/12/29 03:52:31;;;;;;;1.25;0.82;;;;;;;9.90;100.00;97223.00;5041738;28;20041;-74
2023/12/29 03:54:58;;;;;;;1.40;0.60;;;;;;;9.92;100.00;97226.16;5003590;28;20049;-76
2023/12/29 03:57:24;;;;;;;2.15;0.68;;;;;;;10.00;100.00;97232.69;5036246;28;20041;-75
2023/12/29 03:59:51;;;;;;;0.90;0.70;;;;;;;9.86;100.00;97237.44;5028336;28;20049;-75
2023/12/29 04:02:18;;;;;;;2.15;0.82;;;;;;;9.84;100.00;97239.69;5029655;28;20117;-75
2023/12/29 04:04:45;;;;;;;1.67;0.70;;;;;;;9.92;100.00;97230.78;5036105;28;20044;-74
2023/12/29 04:07:12;;;;;;;1.20;0.88;;;;;;;9.88;100.00;97238.72;5019365;28;20068;-76
2023/12/29 04:09:39;;;;;;;1.58;0.98;;;;;;;10.04;100.00;97231.72;5035673;28;20131;-76
2023/12/29 04:12:06;;;;;;;1.70;0.85;;;;;;;9.96;100.00;97234.44;5035163;28;20095;-76
2023/12/29 04:14:33;;;;;;;1.55;0.90;;;;;;;9.97;100.00;97220.59;5031362;28;20041;-77
2023/12/29 04:17:03;;;;;;;1.55;0.82;;;;;;;9.97;100.00;97220.59;5040443;28;20118;-76
2023/12/29 04:19:29;;;;;;;2.50;0.82;;;;;;;10.04;100.00;97234.41;5034031;28;20086;-77
2023/12/29 04:21:56;;;;;;;1.20;0.80;;;;;;;10.09;100.00;97229.97;5030623;28;20080;-74
2023/12/29 04:24:23;;;;;;;1.00;0.70;;;;;;;9.92;100.00;97233.47;5030098;28;20106;-76
2023/12/29 04:26:50;;;;;;;1.73;0.82;;;;;;;9.94;100.00;97213.13;5044557;28;20049;-76
2023/12/29 04:29:16;;;;;;;2.22;0.88;;;;;;;9.97;100.00;97233.31;5039277;28;20041;-76
2023/12/29 04:31:43;;;;;;;2.35;0.80;;;;;;;10.05;100.00;97251.44;5038656;28;20099;-75
2023/12/29 04:34:14;;;;;;;3.67;1.40;;;;;;;9.91;100.00;97240.78;5046935;28;20558;-78
2023/12/29 04:36:40;;;;;;;1.13;0.77;;;;;;;10.07;100.00;97245.69;5047078;28;20045;-77
2023/12/29 04:39:10;;;;;;;1.30;0.80;;;;;;;10.08;100.00;97252.72;5051474;28;20041;-77
2023/12/29 04:41:37;;;;;;;0.80;0.70;;;;;;;10.17;100.00;97253.53;5043006;28;20049;-77
2023/12/29 04:44:03;;;;;;;1.23;0.60;;;;;;;10.00;100.00;97259.72;5042079;28;20060;-77
2023/12/29 04:46:30;;;;;;;4.43;0.80;;;;;;;10.05;100.00;97259.56;5053305;28;20045;-77
2023/12/29 04:48:57;;;;;;;1.52;1.00;;;;;;;9.95;100.00;97260.69;5048684;28;20049;-78
2023/12/29 04:51:24;;;;;;;1.75;0.57;;;;;;;10.09;100.00;97254.31;5047125;28;20123;-78
2023/12/29 04:53:51;;;;;;;1.80;0.70;;;;;;;10.09;100.00;97281.34;5039873;28;20057;-77
2023/12/29 04:56:17;;;;;;;2.78;0.82;;;;;;;9.98;100.00;97264.66;5041720;28;20097;-78
2023/12/29 04:58:44;;;;;;;1.75;0.70;;;;;;;10.18;100.00;97257.81;5056362;28;20044;-76
2023/12/29 05:01:11;;;;;;;1.27;0.80;;;;;;;10.08;100.00;97253.50;5047241;28;20041;-76
2023/12/29 05:03:38;;;;;;;1.17;0.70;;;;;;;10.11;100.00;97249.38;5053925;28;20041;-76
2023/12/29 05:06:05;;;;;;;1.65;0.77;;;;;;;10.18;100.00;97253.19;5053838;28;20091;-77
2023/12/29 05:08:31;;;;;;;1.55;0.93;;;;;;;10.09;100.00;97246.19;5053722;28;20044;-76
2023/12/29 05:10:58;;;;;;;4.38;1.60;;;;;;;10.17;100.00;97258.94;5055476;28;20049;-77
2023/12/29 05:13:25;;;;;;;1.70;0.85;;;;;;;10.08;100.00;97248.09;5053026;28;20442;-77
2023/12/29 05:15:52;;;;;;;1.90;0.73;;;;;;;10.08;100.00;97255.41;5044732;28;20130;-77
2023/12/29 05:18:18;;;;;;;1.92;0.80;;;;;;;10.04;100.00;97261.47;5047741;28;20069;-77
2023/12/29 05:20:45;;;;;;;2.88;1.10;;;;;;;10.03;100.00;97251.78;5030241;28;20036;-77
2023/12/29 05:23:12;;;;;;;0.85;0.65;;;;;;;10.00;100.00;97248.91;5045552;28;20694;-76
2023/12/29 05:25:39;;;;;;;1.65;0.70;;;;;;;9.95;100.00;97241.75;5049602;28;20439;-77
2023/12/29 05:28:05;;;;;;;1.50;0.90;;;;;;;10.12;100.00;97242.84;5026609;28;20045;-77
2023/12/29 05:30:32;;;;;;;2.28;0.98;;;;;;;10.09;100.00;97249.66;5036511;28;20052;-76
2023/12/29 05:32:59;;;;;;;1.42;0.90;;;;;;;10.24;100.00;97243.00;5038303;28;20052;-76
2023/12/29 05:35:26;;;;;;;2.03;0.82;;;;;;;10.26;100.00;97233.47;5044844;28;20443;-76
2023/12/29 05:37:53;;;;;;;1.65;0.88;;;;;;;10.28;100.00;97230.41;5029459;28;20053;-77
2023/12/29 05:40:19;;;;;;;3.10;0.93;;;;;;;10.16;100.00;97224.88;5041774;28;20045;-77
2023/12/29 05:42:46;;;;;;;2.25;0.90;;;;;;;10.01;100.00;97226.94;5019318;28;20042;-77
2023/12/29 05:45:16;;;;;;;2.83;0.60;;;;;;;10.15;100.00;97237.63;5040823;28;20041;-75
2023/12/29 05:47:43;;;;;;;1.92;0.88;;;;;;;10.24;100.00;97234.91;5043212;28;20098;-75
2023/12/29 05:50:10;;;;;;;1.42;0.80;;;;;;;10.13;100.00;97223.63;5033161;28;20077;-76
2023/12/29 05:52:37;;;;;;;1.27;0.70;;;;;;;10.27;100.00;97226.91;5039917;28;20098;-75
2023/12/29 05:55:04;;;;;;;2.35;0.77;;;;;;;10.38;100.00;97217.34;5037467;28;20041;-78
2023/12/29 05:57:30;;;;;;;3.47;0.70;;;;;;;10.13;100.00;97220.13;5031878;28;20053;-75
2023/12/29 05:59:57;;;;;;;1.85;0.75;;;;;;;10.19;100.00;97205.31;5041726;28;20041;-76
2023/12/29 06:02:24;;;;;;;1.45;0.82;;;;;;;10.07;100.00;97214.03;5027574;28;20497;-76
2023/12/29 06:04:51;;;;;;;1.73;0.90;;;;;;;10.13;100.00;97209.28;5045422;28;20053;-75
2023/12/29 06:07:18;;;;;;;2.40;0.90;;;;;;;10.12;100.00;97216.59;5034950;28;20164;-76
2023/12/29 06:09:45;;;;;;;5.00;0.95;;;;;;;10.16;100.00;97216.78;5035292;28;20867;-76
2023/12/29 06:12:13;;;;;;;1.90;0.80;;;;;;;9.98;100.00;97214.09;5018686;28;20151;-75
2023/12/29 06:14:40;;;;;;;1.42;0.90;;;;;;;10.05;100.00;97227.09;5041298;28;20392;-76
2023/12/29 06:17:07;;;;;;;2.05;0.98;;;;;;;9.99;100.00;97231.88;5035267;28;20041;-76
2023/12/29 06:19:34;;;;;;;2.13;0.90;;;;;;;9.93;100.00;97225.06;5036186;28;20396;-76
2023/12/29 06:22:02;;;;;;;1.25;0.80;;;;;;;10.10;100.00;97201.78;5034364;28;20503;-76
2023/12/29 06:24:29;;;;;;;2.30;0.80;;;;;;;10.01;100.00;97221.53;5043009;28;20044;-76
2023/12/29 06:26:56;;;;;;;1.23;0.95;;;;;;;10.10;100.00;97221.53;5033798;28;20072;-75
2023/12/29 06:29:23;;;;;;;1.08;0.80;;;;;;;10.11;100.00;97204.19;5043381;28;20037;-77
2023/12/29 06:31:49;;;;;;;1.52;0.90;;;;;;;10.00;100.00;97208.34;5018119;28;20045;-76
2023/12/29 06:34:16;;;;;;;2.70;0.93;;;;;;;9.96;100.00;97191.19;5027830;28;20565;-77
2023/12/29 06:36:43;;;;;;;2.25;0.95;;;;;;;10.11;100.00;97197.97;5045337;28;20052;-76
2023/12/29 06:39:10;;;;;;;1.75;0.82;;;;;;;10.09;100.00;97186.69;5044576;28;20117;-76
2023/12/29 06:41:37;;;;;;;4.00;1.10;;;;;;;10.06;100.00;97192.75;5011006;28;20051;-76
2023/12/29 06:44:04;;;;;;;1.17;0.77;;;;;;;10.05;100.00;97197.34;5041230;28;20068;-76
2023/12/29 06:46:31;;;;;;;3.00;1.08;;;;;;;10.07;100.00;97187.00;5029245;28;20095;-77
2023/12/29 06:48:57;;;;;;;1.23;0.90;;;;;;;10.21;100.00;97192.25;5070015;28;20045;-77
2023/12/29 06:51:24;;;;;;;1.60;0.98;;;;;;;10.39;100.00;97193.78;5044658;28;20045;-77
2023/12/29 06:53:51;;;;;;;2.03;1.20;;;;;;;10.22;100.00;97189.22;5044425;28;20041;-77
2023/12/29 06:56:18;;;;;;;3.25;1.05;;;;;;;10.15;100.00;97194.34;5046176;28;20113;-77
2023/12/29 06:58:45;;;;;;;2.20;0.80;;;;;;;10.19;100.00;97192.59;5046358;28;20049;-77
2023/12/29 07:01:13;;;;;;;2.08;1.10;;;;;;;9.99;100.00;97185.91;5034860;28;20523;-75
2023/12/29 07:03:39;;;;;;;1.25;0.80;;;;;;;9.95;100.00;97195.78;5040959;28;20107;-76
2023/12/29 07:06:06;;;;;;;3.53;1.02;;;;;;;9.97;100.00;97198.97;5044181;28;20033;-77
2023/12/29 07:08:33;;;;;;;1.33;0.90;;;;;;;10.06;100.00;97190.03;5025409;28;20417;-76
2023/12/29 07:11:00;;;;;;;2.65;0.93;;;;;;;10.19;100.00;97191.78;5046329;28;20049;-77
2023/12/29 07:13:27;;;;;;;2.35;0.80;;;;;;;10.33;100.00;97182.34;5029229;28;20049;-76
2023/12/29 07:15:55;;;;;;;1.70;0.90;;;;;;;10.25;100.00;97182.38;5042882;28;20163;-76
2023/12/29 07:18:21;;;;;;;2.83;0.88;;;;;;;10.25;100.00;97185.06;5040556;28;20041;-76
2023/12/29 07:20:48;;;;;;;2.63;1.00;;;;;;;10.21;100.00;97208.47;5047281;28;20045;-77
2023/12/29 07:23:15;;;;;;;3.42;0.80;;;;;;;10.24;100.00;97219.47;5029273;28;20111;-77
2023/12/29 07:25:42;;;;;;;1.98;0.90;;;;;;;10.22;100.00;97218.97;5035746;28;20041;-76
2023/12/29 07:28:08;;;;;;;6.97;1.02;;;;;;;10.16;100.00;97211.38;5046508;28;20045;-77
2023/12/29 07:30:35;;;;;;;4.53;1.00;;;;;;;10.00;100.00;97224.56;5047570;28;20415;-76
2023/12/29 07:33:02;;;;;;;2.95;1.00;;;;;;;10.02;100.00;97239.34;5044948;28;20048;-76
2023/12/29 07:35:29;;;;;;;7.22;1.00;;;;;;;10.00;100.00;97232.69;5047122;28;20041;-77
2023/12/29 07:37:56;;;;;;;2.38;1.00;;;;;;;10.00;100.00;97241.59;5039045;28;20115;-76
2023/12/29 07:40:24;;;;;;;1.60;1.00;;;;;;;10.00;100.00;97238.09;5045523;28;20037;-75
2023/12/29 07:42:51;;;;;;;2.10;1.00;;;;;;;10.20;100.00;97229.31;5044127;28;20159;-76
2023/12/29 07:45:18;;;;;;;2.15;1.10;;;;;;;10.00;100.00;97252.41;5040289;28;20129;-76
2023/12/29 07:47:44;;;;;;;1.50;0.80;;;;;;;10.04;100.00;97258.75;5030048;28;20042;-76
2023/12/29 07:50:11;;;;;;;3.17;1.13;;;;;;;10.09;100.00;97267.84;5044082;28;20037;-76
2023/12/29 07:52:38;;;;;;;3.53;1.00;;;;;;;10.13;100.00;97282.31;5045517;28;20127;-76
2023/12/29 07:55:05;;;;;;;2.33;1.10;;;;;;;10.13;100.00;97272.31;5036084;28;20049;-76
2023/12/29 07:57:32;;;;;;;2.85;0.77;;;;;;;10.22;100.00;97285.81;5046643;28;20128;-76
2023/12/29 07:59:59;;;;;;;3.97;1.15;;;;;;;10.33;100.00;97292.47;5044341;28;20282;-74
2023/12/29 08:02:27;;;;;;;3.00;1.20;;;;;;;10.35;100.00;97298.38;5044466;28;20539;-76
2023/12/29 08:04:55;;;;;;;3.58;1.23;;;;;;;10.52;100.00;97295.63;5043164;28;20087;-76
2023/12/29 08:07:21;;;;;;;5.40;1.08;;;;;;;10.45;100.00;97281.81;5040631;28;20103;-76
2023/12/29 08:09:48;;;;;;;2.22;1.10;;;;;;;10.32;100.00;97301.72;5047016;28;20052;-77
2023/12/29 08:12:15;;;;;;;1.58;0.95;;;;;;;10.46;100.00;97299.59;5043995;28;20494;-74
2023/12/29 08:14:42;;;;;;;2.58;0.90;;;;;;;10.50;100.00;97284.34;5030647;28;20079;-76
2023/12/29 08:17:09;;;;;;;5.97;1.00;;;;;;;10.59;100.00;97295.91;5045910;28;20045;-76
2023/12/29 08:19:36;;;;;;;2.30;0.90;;;;;;;10.59;100.00;97304.03;5058778;28;20049;-76
2023/12/29 08:22:03;;;;;;;4.70;1.10;;;;;;;10.71;100.00;97284.44;5037072;28;20049;-76
2023/12/29 08:24:30;;;;;;;1.90;0.90;;;;;;;10.71;100.00;97295.25;5032475;28;20095;-76
2023/12/29 08:26:57;;;;;;;1.50;0.80;;;;;;;10.80;100.00;97288.69;5041003;28;20059;-75
2023/12/29 08:29:25;;;;;;;1.95;0.90;;;;;;;10.86;100.00;97292.00;5041213;28;20529;-76
2023/12/29 08:31:52;;;;;;;3.42;1.08;;;;;;;10.77;100.00;97281.22;5042385;28;20045;-77
2023/12/29 08:34:19;;;;;;;4.28;1.20;;;;;;;10.87;100.00;97291.69;5043542;28;20041;-76
2023/12/29 08:36:50;;;;;;;2.40;0.93;;;;;;;10.85;100.00;97288.50;5040235;28;20541;-77
2023/12/29 08:39:18;;;;;;;5.38;1.10;;;;;;;10.98;100.00;97284.00;5034167;28;20041;-76
2023/12/29 08:41:47;;;;;;;5.13;1.05;;;;;;;10.71;100.00;97293.31;5034950;28;21116;-75
2023/12/29 08:44:14;;;;;;;2.72;1.20;;;;;;;10.86;100.00;97286.59;5028768;28;20662;-76
2023/12/29 08:46:41;;;;;;;1.30;0.88;;;;;;;10.83;100.00;97288.03;5036439;28;20094;-77
2023/12/29 08:49:08;;;;;;;1.45;0.90;;;;;;;10.80;100.00;97269.72;5038366;28;20526;-75
2023/12/29 08:51:35;;;;;;;1.83;0.80;;;;;;;11.01;100.00;97281.44;5059066;28;20033;-75
2023/12/29 08:54:02;;;;;;;2.20;1.05;;;;;;;11.00;100.00;97274.41;5036424;28;20811;-76
2023/12/29 08:56:29;;;;;;;2.10;0.82;;;;;;;10.97;100.00;97283.19;5032659;28;20060;-76
2023/12/29 08:58:56;;;;;;;3.35;1.00;;;;;;;11.23;100.00;97285.78;5039036;28;20052;-76
2023/12/29 09:01:22;;;;;;;2.90;1.00;;;;;;;11.03;100.00;97291.94;5026594;28;20419;-75
2023/12/29 09:03:49;;;;;;;1.63;0.75;;;;;;;11.11;100.00;97286.47;5036145;28;20052;-76
2023/12/29 09:06:16;;;;;;;1.65;0.90;;;;;;;11.22;100.00;97289.63;5012317;28;20077;-77
2023/12/29 09:08:43;;;;;;;3.50;1.00;;;;;;;11.11;100.00;97283.78;5037913;28;20499;-76
2023/12/29 09:11:10;;;;;;;1.40;0.75;;;;;;;11.21;100.00;97261.72;5026831;28;20044;-75
2023/12/29 09:13:39;;;;;;;1.88;0.80;;;;;;;11.16;100.00;97269.25;5036625;28;20041;-75
2023/12/29 09:16:06;;;;;;;3.95;1.00;;;;;;;11.18;100.00;97280.53;5025111;28;20103;-76
2023/12/29 09:18:33;;;;;;;2.28;0.77;;;;;;;11.43;100.00;97276.09;5015151;28;20040;-77
2023/12/29 09:21:02;;;;;;;3.88;0.90;;;;;;;11.09;100.00;97272.47;5004685;28;20136;-77
2023/12/29 09:23:29;;;;;;;2.75;1.13;;;;;;;11.58;100.00;97284.44;5034156;28;20049;-77
2023/12/29 09:25:56;;;;;;;2.00;0.80;;;;;;;11.71;100.00;97266.38;5026694;28;20050;-76
2023/12/29 09:28:23;;;;;;;2.58;1.15;;;;;;;11.61;100.00;97272.97;5024333;28;20037;-76
2023/12/29 09:30:50;;;;;;;5.38;0.98;;;;;;;11.53;100.00;97275.72;5023254;28;20133;-77
2023/12/29 09:33:17;;;;;;;1.83;0.90;;;;;;;11.57;100.00;97271.22;5049401;28;20053;-77
2023/12/29 09:35:44;;;;;;;1.58;0.88;;;;;;;11.65;100.00;97282.00;5033668;28;20128;-76
2023/12/29 09:38:11;;;;;;;4.18;0.90;;;;;;;11.26;100.00;97282.41;5021011;28;20053;-76
2023/12/29 09:40:37;;;;;;;2.67;0.95;;;;;;;11.45;100.00;97290.91;5048850;28;20064;-77
2023/12/29 09:43:04;;;;;;;3.10;0.73;;;;;;;11.39;100.00;97286.00;5024810;28;20060;-76
2023/12/29 09:45:34;;;;;;;2.38;0.80;;;;;;;11.23;100.00;97294.69;5037511;28;20047;-77
2023/12/29 09:48:02;;;;;;;4.45;0.90;;;;;;;11.18;100.00;97294.88;5026827;28;20072;-76
2023/12/29 09:50:30;;;;;;;2.13;1.13;;;;;;;11.11;100.00;97300.03;5036038;28;20110;-76
2023/12/29 09:52:57;;;;;;;1.83;1.00;;;;;;;11.23;100.00;97286.56;5036036;28;20686;-74
2023/12/29 09:55:25;;;;;;;2.63;0.90;;;;;;;10.98;100.00;97298.34;5030421;28;20045;-76
2023/12/29 09:57:52;;;;;;;4.10;1.10;;;;;;;10.97;100.00;97288.59;5038473;28;20573;-75
2023/12/29 10:00:20;;;;;;;3.88;1.13;;;;;;;11.04;100.00;97296.25;5022963;28;20060;-74
2023/12/29 10:02:52;;;;;;;6.25;1.42;;;;;;;11.05;100.00;97287.78;5031868;28;20486;-75
2023/12/29 10:05:19;;;;;;;3.80;0.80;;;;;;;11.25;100.00;97289.75;5034772;28;20538;-76
2023/12/29 10:07:47;;;;;;;3.13;1.10;;;;;;;11.18;100.00;97308.44;5029505;28;20041;-74
2023/12/29 10:10:16;;;;;;;3.13;1.05;;;;;;;11.11;100.00;97297.31;5034374;28;20607;-76
2023/12/29 10:12:47;;;;;;;4.90;1.15;;;;;;;11.19;100.00;97304.63;5035235;28;20047;-75
2023/12/29 10:15:28;;;;;;;4.97;1.17;;;;;;;11.25;100.00;97299.81;5022410;28;20470;-75
2023/12/29 10:18:30;;;;;;;2.90;0.95;;;;;;;11.05;100.00;97295.91;5015683;28;20068;-74
2023/12/29 10:21:03;;;;;;;1.20;0.80;;;;;;;11.21;100.00;97290.72;5009473;28;20539;-74
2023/12/29 10:23:41;;;;;;;1.67;0.70;;;;;;;11.31;100.00;97286.84;5029197;28;20213;-75
2023/12/29 10:26:10;;;;;;;5.18;1.00;;;;;;;11.23;100.00;97286.56;5027297;28;20496;-75
2023/12/29 10:28:37;;;;;;;3.20;0.93;;;;;;;11.48;100.00;97284.84;5023430;28;20538;-74
2023/12/29 10:31:04;;;;;;;4.07;1.00;;;;;;;11.45;100.00;97285.50;5018749;28;20046;-75
2023/12/29 10:33:32;;;;;;;2.30;1.00;;;;;;;11.30;100.00;97285.28;5000465;28;20037;-76
2023/12/29 10:36:03;;;;;;;2.65;1.05;;;;;;;11.19;100.00;97266.69;5038267;28;20037;-76
2023/12/29 10:38:31;;;;;;;4.40;0.90;;;;;;;11.58;100.00;97267.38;5029332;28;20518;-76
2023/12/29 10:41:15;;;;;;;3.55;0.75;;;;;;;11.66;100.00;97269.25;5032782;28;20128;-75
2023/12/29 10:43:43;;;;;;;3.05;1.02;;;;;;;11.77;100.00;97240.63;5024005;28;20486;-75
2023/12/29 10:46:11;;;;;;;2.83;0.93;;;;;;;11.72;100.00;97241.63;4995700;28;20041;-76
2023/12/29 10:48:39;;;;;;;1.95;0.80;;;;;;;11.75;100.00;97234.75;5021421;28;20049;-77
2023/12/29 10:51:06;;;;;;;2.50;0.98;;;;;;;11.78;100.00;97237.59;5011214;28;20050;-75
2023/12/29 10:53:34;;;;;;;1.27;0.80;;;;;;;11.51;100.00;97229.94;5005974;28;20038;-76
2023/12/29 10:56:19;;;;;;;2.17;1.17;;;;;;;11.81;100.00;97217.16;5011033;28;20080;-76
2023/12/29 10:58:57;;;;;;;2.90;0.98;;;;;;;11.82;100.00;97224.94;5017316;28;20072;-76
2023/12/29 11:01:25;;;;;;;2.25;0.85;;;;;;;11.96;100.00;97224.66;5016433;28;20053;-76
2023/12/29 11:03:59;;;;;;;1.73;0.90;;;;;;;11.68;100.00;97219.00;5016481;28;20044;-77
2023/12/29 11:06:28;;;;;;;3.58;1.00;;;;;;;11.79;100.00;97217.47;5013195;28;20065;-75
2023/12/29 11:08:56;;;;;;;3.40;0.90;;;;;;;11.79;100.00;97231.03;5018920;28;20050;-76
2023/12/29 11:11:23;;;;;;;3.47;0.90;;;;;;;11.68;100.00;97213.59;5027522;28;21305;-76
2023/12/29 11:13:50;;;;;;;2.03;0.82;;;;;;;11.62;100.00;97220.31;5008223;28;20458;-76
2023/12/29 11:16:21;;;;;;;3.72;0.80;;;;;;;11.50;100.00;97225.66;5020265;28;20576;-75
2023/12/29 11:18:52;;;;;;;3.00;0.80;;;;;;;11.52;100.00;97201.72;5031644;28;20042;-74
2023/12/29 11:21:22;;;;;;;5.43;1.25;;;;;;;11.49;100.00;97220.56;5059008;28;20049;-75
2023/12/29 11:23:49;;;;;;;1.95;0.90;;;;;;;11.56;100.00;97220.84;5041308;28;20138;-75
2023/12/29 11:26:18;;;;;;;3.50;0.85;;;;;;;11.36;100.00;97219.69;5041881;28;20041;-76
2023/12/29 11:28:51;;;;;;;3.30;1.10;;;;;;;11.66;100.00;97215.81;5027405;28;20128;-76
2023/12/29 11:31:18;;;;;;;3.90;0.75;;;;;;;11.54;100.00;97207.59;5027285;28;20108;-77